sensor_id;sensor_type;location;lat;lon;timestamp;pressure;altitude;pressure_sealevel;temperature
68939;BMP180;59064;45.294;11.816;2023-09-08T00:01:13;101829.60;;;20.00
68939;BMP180;59064;45.294;11.816;2023-09-08T00:03:39;101832.40;;;20.00
68939;BMP180;59064;45.294;11.816;2023-09-08T00:06:05;101833.20;;;20.00
68939;BMP180;59064;45.294;11.816;2023-09-08T00:08:30;101835.20;;;20.00
68939;BMP180;59064;45.294;11.816;2023-09-08T00:10:55;101836.60;;;19.90
68939;BMP180;59064;45.294;11.816;2023-09-08T00:13:21;101838.00;;;19.90
68939;BMP180;59064;45.294;11.816;2023-09-08T00:15:47;101832.20;;;19.90
68939;BMP180;59064;45.294;11.816;2023-09-08T00:18:12;101832.60;;;19.90
68939;BMP180;59064;45.294;11.816;2023-09-08T00:20:37;101831.20;;;19.90
68939;BMP180;59064;45.294;11.816;2023-09-08T00:23:03;101831.20;;;19.90
68939;BMP180;59064;45.294;11.816;2023-09-08T00:25:28;101830.80;;;19.90
68939;BMP180;59064;45.294;11.816;2023-09-08T00:27:54;101831.80;;;19.90
68939;BMP180;59064;45.294;11.816;2023-09-08T00:30:19;101831.20;;;19.90
68939;BMP180;59064;45.294;11.816;2023-09-08T00:32:45;101831.00;;;19.90
68939;BMP180;59064;45.294;11.816;2023-09-08T00:35:11;101822.40;;;19.90
68939;BMP180;59064;45.294;11.816;2023-09-08T00:37:40;101821.00;;;19.90
68939;BMP180;59064;45.294;11.816;2023-09-08T00:40:09;101818.60;;;19.80
68939;BMP180;59064;45.294;11.816;2023-09-08T00:42:36;101822.40;;;19.80
68939;BMP180;59064;45.294;11.816;2023-09-08T00:45:02;101818.40;;;19.70
68939;BMP180;59064;45.294;11.816;2023-09-08T00:47:29;101812.40;;;19.70
68939;BMP180;59064;45.294;11.816;2023-09-08T00:49:54;101816.20;;;19.70
68939;BMP180;59064;45.294;11.816;2023-09-08T00:52:20;101807.00;;;19.70
68939;BMP180;59064;45.294;11.816;2023-09-08T00:54:45;101805.60;;;19.70
68939;BMP180;59064;45.294;11.816;2023-09-08T00:57:11;101801.80;;;19.70
68939;BMP180;59064;45.294;11.816;2023-09-08T00:59:37;101804.60;;;19.70
68939;BMP180;59064;45.294;11.816;2023-09-08T01:02:04;101808.60;;;19.80
68939;BMP180;59064;45.294;11.816;2023-09-08T01:04:30;101803.00;;;19.80
68939;BMP180;59064;45.294;11.816;2023-09-08T01:06:56;101800.00;;;19.90
68939;BMP180;59064;45.294;11.816;2023-09-08T01:09:22;101799.80;;;19.90
68939;BMP180;59064;45.294;11.816;2023-09-08T01:11:48;101803.40;;;19.90
68939;BMP180;59064;45.294;11.816;2023-09-08T01:14:13;101803.60;;;19.90
68939;BMP180;59064;45.294;11.816;2023-09-08T01:16:42;101805.20;;;19.90
68939;BMP180;59064;45.294;11.816;2023-09-08T01:19:12;101807.60;;;19.86
68939;BMP180;59064;45.294;11.816;2023-09-08T01:22:07;101805.40;;;19.90
68939;BMP180;59064;45.294;11.816;2023-09-08T01:27:35;101793.60;;;19.90
68939;BMP180;59064;45.294;11.816;2023-09-08T01:30:05;101789.00;;;19.90
68939;BMP180;59064;45.294;11.816;2023-09-08T01:32:32;101789.40;;;19.90
68939;BMP180;59064;45.294;11.816;2023-09-08T01:34:58;101797.00;;;19.90
68939;BMP180;59064;45.294;11.816;2023-09-08T01:37:25;101795.80;;;19.80
68939;BMP180;59064;45.294;11.816;2023-09-08T01:39:51;101800.60;;;19.80
68939;BMP180;59064;45.294;11.816;2023-09-08T01:42:17;101796.20;;;19.70
68939;BMP180;59064;45.294;11.816;2023-09-08T01:44:42;101798.00;;;19.60
68939;BMP180;59064;45.294;11.816;2023-09-08T01:47:08;101798.40;;;19.60
68939;BMP180;59064;45.294;11.816;2023-09-08T01:49:33;101791.80;;;19.50
68939;BMP180;59064;45.294;11.816;2023-09-08T01:51:59;101791.80;;;19.50
68939;BMP180;59064;45.294;11.816;2023-09-08T01:54:24;101785.20;;;19.50
68939;BMP180;59064;45.294;11.816;2023-09-08T01:56:50;101784.00;;;19.50
68939;BMP180;59064;45.294;11.816;2023-09-08T01:59:17;101778.20;;;19.50
68939;BMP180;59064;45.294;11.816;2023-09-08T02:01:43;101781.60;;;19.50
68939;BMP180;59064;45.294;11.816;2023-09-08T02:04:08;101782.20;;;19.50
68939;BMP180;59064;45.294;11.816;2023-09-08T02:06:34;101781.80;;;19.50
68939;BMP180;59064;45.294;11.816;2023-09-08T02:08:59;101780.20;;;19.60
68939;BMP180;59064;45.294;11.816;2023-09-08T02:11:25;101778.60;;;19.60
68939;BMP180;59064;45.294;11.816;2023-09-08T02:13:52;101777.20;;;19.60
68939;BMP180;59064;45.294;11.816;2023-09-08T02:16:17;101775.80;;;19.60
68939;BMP180;59064;45.294;11.816;2023-09-08T02:18:44;101774.40;;;19.60
68939;BMP180;59064;45.294;11.816;2023-09-08T02:21:10;101780.20;;;19.60
68939;BMP180;59064;45.294;11.816;2023-09-08T02:23:35;101776.60;;;19.50
68939;BMP180;59064;45.294;11.816;2023-09-08T02:26:01;101778.20;;;19.52
68939;BMP180;59064;45.294;11.816;2023-09-08T02:28:27;101776.80;;;19.52
68939;BMP180;59064;45.294;11.816;2023-09-08T02:30:55;101779.60;;;19.58
68939;BMP180;59064;45.294;11.816;2023-09-08T02:33:21;101775.60;;;19.50
68939;BMP180;59064;45.294;11.816;2023-09-08T02:35:46;101775.80;;;19.50
68939;BMP180;59064;45.294;11.816;2023-09-08T02:38:11;101770.80;;;19.44
68939;BMP180;59064;45.294;11.816;2023-09-08T02:40:37;101768.60;;;19.40
68939;BMP180;59064;45.294;11.816;2023-09-08T02:43:03;101767.00;;;19.40
68939;BMP180;59064;45.294;11.816;2023-09-08T02:45:30;101762.40;;;19.30
68939;BMP180;59064;45.294;11.816;2023-09-08T02:47:55;101763.20;;;19.30
68939;BMP180;59064;45.294;11.816;2023-09-08T02:50:21;101759.80;;;19.30
68939;BMP180;59064;45.294;11.816;2023-09-08T02:52:47;101755.80;;;19.30
68939;BMP180;59064;45.294;11.816;2023-09-08T02:55:12;101749.60;;;19.30
68939;BMP180;59064;45.294;11.816;2023-09-08T02:57:39;101750.40;;;19.30
68939;BMP180;59064;45.294;11.816;2023-09-08T03:00:05;101752.60;;;19.30
68939;BMP180;59064;45.294;11.816;2023-09-08T03:02:32;101755.80;;;19.20
68939;BMP180;59064;45.294;11.816;2023-09-08T03:04:57;101751.00;;;19.20
68939;BMP180;59064;45.294;11.816;2023-09-08T03:07:23;101757.60;;;19.20
68939;BMP180;59064;45.294;11.816;2023-09-08T03:09:48;101753.00;;;19.10
68939;BMP180;59064;45.294;11.816;2023-09-08T03:12:14;101753.80;;;19.20
68939;BMP180;59064;45.294;11.816;2023-09-08T03:14:39;101754.20;;;19.20
68939;BMP180;59064;45.294;11.816;2023-09-08T03:17:05;101753.40;;;19.20
68939;BMP180;59064;45.294;11.816;2023-09-08T03:19:30;101753.60;;;19.30
68939;BMP180;59064;45.294;11.816;2023-09-08T03:21:56;101756.20;;;19.30
68939;BMP180;59064;45.294;11.816;2023-09-08T03:24:21;101756.60;;;19.40
68939;BMP180;59064;45.294;11.816;2023-09-08T03:26:48;101753.40;;;19.40
68939;BMP180;59064;45.294;11.816;2023-09-08T03:29:13;101750.20;;;19.40
68939;BMP180;59064;45.294;11.816;2023-09-08T03:31:38;101750.20;;;19.50
68939;BMP180;59064;45.294;11.816;2023-09-08T03:34:04;101746.80;;;19.42
68939;BMP180;59064;45.294;11.816;2023-09-08T03:36:30;101747.80;;;19.40
68939;BMP180;59064;45.294;11.816;2023-09-08T03:38:56;101748.80;;;19.40
68939;BMP180;59064;45.294;11.816;2023-09-08T03:41:23;101747.40;;;19.40
68939;BMP180;59064;45.294;11.816;2023-09-08T03:43:49;101750.60;;;19.50
68939;BMP180;59064;45.294;11.816;2023-09-08T03:46:14;101749.40;;;19.50
68939;BMP180;59064;45.294;11.816;2023-09-08T03:48:40;101745.60;;;19.50
68939;BMP180;59064;45.294;11.816;2023-09-08T03:51:05;101749.80;;;19.50
68939;BMP180;59064;45.294;11.816;2023-09-08T03:53:31;101751.00;;;19.50
68939;BMP180;59064;45.294;11.816;2023-09-08T03:55:56;101749.00;;;19.40
68939;BMP180;59064;45.294;11.816;2023-09-08T03:58:22;101750.00;;;19.40
68939;BMP180;59064;45.294;11.816;2023-09-08T04:00:47;101747.60;;;19.32
68939;BMP180;59064;45.294;11.816;2023-09-08T04:03:13;101745.80;;;19.30
68939;BMP180;59064;45.294;11.816;2023-09-08T04:05:38;101742.60;;;19.30
68939;BMP180;59064;45.294;11.816;2023-09-08T04:08:04;101739.20;;;19.30
68939;BMP180;59064;45.294;11.816;2023-09-08T04:10:30;101738.40;;;19.30
68939;BMP180;59064;45.294;11.816;2023-09-08T04:12:56;101739.60;;;19.30
68939;BMP180;59064;45.294;11.816;2023-09-08T04:15:21;101739.20;;;19.26
68939;BMP180;59064;45.294;11.816;2023-09-08T04:17:47;101732.80;;;19.20
68939;BMP180;59064;45.294;11.816;2023-09-08T04:20:13;101732.20;;;19.20
68939;BMP180;59064;45.294;11.816;2023-09-08T04:22:42;101734.40;;;19.10
68939;BMP180;59064;45.294;11.816;2023-09-08T04:25:08;101733.40;;;19.10
68939;BMP180;59064;45.294;11.816;2023-09-08T04:27:34;101738.40;;;19.10
68939;BMP180;59064;45.294;11.816;2023-09-08T04:30:05;101738.00;;;19.10
68939;BMP180;59064;45.294;11.816;2023-09-08T04:32:31;101740.80;;;19.10
68939;BMP180;59064;45.294;11.816;2023-09-08T04:34:57;101739.00;;;19.00
68939;BMP180;59064;45.294;11.816;2023-09-08T04:37:22;101739.00;;;19.00
68939;BMP180;59064;45.294;11.816;2023-09-08T04:39:48;101736.80;;;19.00
68939;BMP180;59064;45.294;11.816;2023-09-08T04:42:13;101738.20;;;19.00
68939;BMP180;59064;45.294;11.816;2023-09-08T04:44:39;101742.40;;;19.00
68939;BMP180;59064;45.294;11.816;2023-09-08T04:47:04;101738.40;;;19.00
68939;BMP180;59064;45.294;11.816;2023-09-08T04:49:30;101742.80;;;18.90
68939;BMP180;59064;45.294;11.816;2023-09-08T04:51:56;101748.00;;;18.86
68939;BMP180;59064;45.294;11.816;2023-09-08T04:54:21;101750.60;;;18.80
68939;BMP180;59064;45.294;11.816;2023-09-08T04:56:49;101754.80;;;18.80
68939;BMP180;59064;45.294;11.816;2023-09-08T04:59:15;101749.40;;;18.80
68939;BMP180;59064;45.294;11.816;2023-09-08T05:01:40;101747.80;;;18.90
68939;BMP180;59064;45.294;11.816;2023-09-08T05:04:06;101749.00;;;18.90
68939;BMP180;59064;45.294;11.816;2023-09-08T05:06:31;101749.00;;;19.00
68939;BMP180;59064;45.294;11.816;2023-09-08T05:08:59;101756.20;;;19.00
68939;BMP180;59064;45.294;11.816;2023-09-08T05:11:25;101756.80;;;19.00
68939;BMP180;59064;45.294;11.816;2023-09-08T05:13:51;101761.60;;;19.00
68939;BMP180;59064;45.294;11.816;2023-09-08T05:18:56;101761.80;;;19.00
68939;BMP180;59064;45.294;11.816;2023-09-08T05:22:04;101757.60;;;19.10
68939;BMP180;59064;45.294;11.816;2023-09-08T05:27:27;101759.40;;;19.20
68939;BMP180;59064;45.294;11.816;2023-09-08T05:30:15;101757.20;;;19.30
68939;BMP180;59064;45.294;11.816;2023-09-08T05:32:54;101755.40;;;19.40
68939;BMP180;59064;45.294;11.816;2023-09-08T05:35:22;101758.00;;;19.50
68939;BMP180;59064;45.294;11.816;2023-09-08T05:43:33;101761.80;;;19.94
68939;BMP180;59064;45.294;11.816;2023-09-08T05:46:11;101755.60;;;20.14
68939;BMP180;59064;45.294;11.816;2023-09-08T05:48:48;101759.00;;;20.30
68939;BMP180;59064;45.294;11.816;2023-09-08T05:51:30;101765.20;;;20.44
68939;BMP180;59064;45.294;11.816;2023-09-08T05:54:06;101769.80;;;20.60
68939;BMP180;59064;45.294;11.816;2023-09-08T05:59:58;101769.80;;;20.90
68939;BMP180;59064;45.294;11.816;2023-09-08T06:02:32;101771.60;;;21.00
68939;BMP180;59064;45.294;11.816;2023-09-08T06:05:04;101770.80;;;21.10
68939;BMP180;59064;45.294;11.816;2023-09-08T06:07:55;101772.20;;;21.22
68939;BMP180;59064;45.294;11.816;2023-09-08T06:10:30;101776.60;;;21.30
68939;BMP180;59064;45.294;11.816;2023-09-08T06:13:07;101777.60;;;21.46
68939;BMP180;59064;45.294;11.816;2023-09-08T06:16:02;101781.60;;;21.50
68939;BMP180;59064;45.294;11.816;2023-09-08T06:18:51;101772.80;;;21.60
68939;BMP180;59064;45.294;11.816;2023-09-08T06:24:11;101775.60;;;21.80
68939;BMP180;59064;45.294;11.816;2023-09-08T06:26:42;101773.40;;;21.90
68939;BMP180;59064;45.294;11.816;2023-09-08T06:29:42;101771.80;;;21.92
68939;BMP180;59064;45.294;11.816;2023-09-08T06:32:11;101776.00;;;22.00
68939;BMP180;59064;45.294;11.816;2023-09-08T06:35:05;101769.00;;;22.08
68939;BMP180;59064;45.294;11.816;2023-09-08T06:44:14;101771.80;;;22.50
68939;BMP180;59064;45.294;11.816;2023-09-08T06:46:42;101776.40;;;22.50
68939;BMP180;59064;45.294;11.816;2023-09-08T06:49:30;101778.20;;;22.60
68939;BMP180;59064;45.294;11.816;2023-09-08T07:01:23;101785.20;;;23.10
68939;BMP180;59064;45.294;11.816;2023-09-08T07:04:47;101782.60;;;23.20
68939;BMP180;59064;45.294;11.816;2023-09-08T07:07:21;101786.40;;;23.26
68939;BMP180;59064;45.294;11.816;2023-09-08T07:09:52;101791.00;;;23.30
68939;BMP180;59064;45.294;11.816;2023-09-08T07:12:25;101792.20;;;23.48
68939;BMP180;59064;45.294;11.816;2023-09-08T07:14:59;101789.40;;;23.60
68939;BMP180;59064;45.294;11.816;2023-09-08T07:17:38;101778.20;;;23.70
68939;BMP180;59064;45.294;11.816;2023-09-08T07:22:58;101785.60;;;23.96
68939;BMP180;59064;45.294;11.816;2023-09-08T07:25:57;101786.00;;;24.10
68939;BMP180;59064;45.294;11.816;2023-09-08T07:29:05;101785.40;;;24.30
68939;BMP180;59064;45.294;11.816;2023-09-08T07:31:35;101782.60;;;24.48
68939;BMP180;59064;45.294;11.816;2023-09-08T07:34:39;101792.00;;;24.60
68939;BMP180;59064;45.294;11.816;2023-09-08T07:40:41;101790.00;;;24.80
68939;BMP180;59064;45.294;11.816;2023-09-08T07:48:27;101798.20;;;25.10
68939;BMP180;59064;45.294;11.816;2023-09-08T07:51:20;101801.80;;;25.20
68939;BMP180;59064;45.294;11.816;2023-09-08T07:54:00;101801.00;;;25.18
68939;BMP180;59064;45.294;11.816;2023-09-08T07:59:17;101805.00;;;25.40
68939;BMP180;59064;45.294;11.816;2023-09-08T08:01:43;101805.40;;;25.40
68939;BMP180;59064;45.294;11.816;2023-09-08T08:18:39;101809.80;;;26.10
68939;BMP180;59064;45.294;11.816;2023-09-08T08:21:34;101811.60;;;26.20
68939;BMP180;59064;45.294;11.816;2023-09-08T08:24:11;101813.60;;;26.30
68939;BMP180;59064;45.294;11.816;2023-09-08T08:33:16;101813.60;;;26.70
68939;BMP180;59064;45.294;11.816;2023-09-08T08:44:00;101805.60;;;27.42
68939;BMP180;59064;45.294;11.816;2023-09-08T08:52:21;101791.60;;;27.60
68939;BMP180;59064;45.294;11.816;2023-09-08T08:55:14;101791.80;;;27.60
68939;BMP180;59064;45.294;11.816;2023-09-08T08:58:13;101786.60;;;27.60
68939;BMP180;59064;45.294;11.816;2023-09-08T09:01:09;101780.40;;;27.70
68939;BMP180;59064;45.294;11.816;2023-09-08T09:07:38;101780.00;;;27.70
68939;BMP180;59064;45.294;11.816;2023-09-08T09:10:06;101779.60;;;27.80
68939;BMP180;59064;45.294;11.816;2023-09-08T09:15:37;101780.20;;;27.90
68939;BMP180;59064;45.294;11.816;2023-09-08T09:21:03;101778.80;;;28.20
68939;BMP180;59064;45.294;11.816;2023-09-08T09:26:36;101775.20;;;28.50
68939;BMP180;59064;45.294;11.816;2023-09-08T09:29:22;101765.20;;;28.50
68939;BMP180;59064;45.294;11.816;2023-09-08T09:32:10;101766.80;;;28.50
68939;BMP180;59064;45.294;11.816;2023-09-08T09:35:22;101769.20;;;28.50
68939;BMP180;59064;45.294;11.816;2023-09-08T09:38:09;101770.00;;;28.66
68939;BMP180;59064;45.294;11.816;2023-09-08T09:40:41;101773.00;;;28.70
68939;BMP180;59064;45.294;11.816;2023-09-08T09:43:25;101764.80;;;28.80
68939;BMP180;59064;45.294;11.816;2023-09-08T09:46:45;101774.00;;;29.02
68939;BMP180;59064;45.294;11.816;2023-09-08T09:49:19;101766.20;;;29.10
68939;BMP180;59064;45.294;11.816;2023-09-08T09:54:43;101769.80;;;29.10
68939;BMP180;59064;45.294;11.816;2023-09-08T10:00:31;101771.20;;;29.00
68939;BMP180;59064;45.294;11.816;2023-09-08T10:08:48;101759.20;;;29.30
68939;BMP180;59064;45.294;11.816;2023-09-08T10:11:34;101760.20;;;29.28
68939;BMP180;59064;45.294;11.816;2023-09-08T10:14:04;101755.00;;;29.40
68939;BMP180;59064;45.294;11.816;2023-09-08T10:16:56;101746.40;;;29.60
68939;BMP180;59064;45.294;11.816;2023-09-08T10:19:38;101748.20;;;29.64
68939;BMP180;59064;45.294;11.816;2023-09-08T10:27:41;101743.00;;;29.50
68939;BMP180;59064;45.294;11.816;2023-09-08T10:30:17;101739.60;;;29.60
68939;BMP180;59064;45.294;11.816;2023-09-08T10:32:51;101744.20;;;29.46
68939;BMP180;59064;45.294;11.816;2023-09-08T10:35:35;101741.80;;;29.70
68939;BMP180;59064;45.294;11.816;2023-09-08T10:38:23;101740.00;;;29.80
68939;BMP180;59064;45.294;11.816;2023-09-08T10:44:02;101748.20;;;29.76
68939;BMP180;59064;45.294;11.816;2023-09-08T10:46:46;101744.40;;;29.70
68939;BMP180;59064;45.294;11.816;2023-09-08T10:49:26;101746.40;;;29.70
68939;BMP180;59064;45.294;11.816;2023-09-08T10:54:59;101745.80;;;30.10
68939;BMP180;59064;45.294;11.816;2023-09-08T10:57:27;101741.20;;;30.30
68939;BMP180;59064;45.294;11.816;2023-09-08T11:00:04;101732.00;;;30.40
68939;BMP180;59064;45.294;11.816;2023-09-08T11:02:39;101735.80;;;30.60
68939;BMP180;59064;45.294;11.816;2023-09-08T11:05:12;101732.00;;;30.60
68939;BMP180;59064;45.294;11.816;2023-09-08T11:07:43;101735.00;;;30.70
68939;BMP180;59064;45.294;11.816;2023-09-08T11:10:13;101727.20;;;31.00
68939;BMP180;59064;45.294;11.816;2023-09-08T11:12:46;101724.40;;;30.90
68939;BMP180;59064;45.294;11.816;2023-09-08T11:15:21;101735.80;;;30.62
68939;BMP180;59064;45.294;11.816;2023-09-08T11:20:30;101732.40;;;30.52
68939;BMP180;59064;45.294;11.816;2023-09-08T11:22:58;101735.80;;;30.74
68939;BMP180;59064;45.294;11.816;2023-09-08T11:25:24;101737.80;;;31.04
68939;BMP180;59064;45.294;11.816;2023-09-08T11:27:50;101724.80;;;31.20
68939;BMP180;59064;45.294;11.816;2023-09-08T11:30:28;101725.00;;;31.30
68939;BMP180;59064;45.294;11.816;2023-09-08T11:32:55;101729.80;;;31.26
68939;BMP180;59064;45.294;11.816;2023-09-08T11:35:26;101729.40;;;31.10
68939;BMP180;59064;45.294;11.816;2023-09-08T11:37:58;101730.40;;;31.02
68939;BMP180;59064;45.294;11.816;2023-09-08T11:40:47;101731.80;;;31.18
68939;BMP180;59064;45.294;11.816;2023-09-08T11:43:18;101732.00;;;31.30
68939;BMP180;59064;45.294;11.816;2023-09-08T11:45:52;101729.00;;;31.20
68939;BMP180;59064;45.294;11.816;2023-09-08T11:48:20;101730.00;;;31.12
68939;BMP180;59064;45.294;11.816;2023-09-08T11:50:49;101732.80;;;31.36
68939;BMP180;59064;45.294;11.816;2023-09-08T11:53:26;101728.40;;;31.70
68939;BMP180;59064;45.294;11.816;2023-09-08T11:56:02;101720.20;;;31.94
68939;BMP180;59064;45.294;11.816;2023-09-08T11:58:29;101722.40;;;31.92
68939;BMP180;59064;45.294;11.816;2023-09-08T12:00:56;101715.40;;;32.06
68939;BMP180;59064;45.294;11.816;2023-09-08T12:03:23;101713.80;;;32.12
68939;BMP180;59064;45.294;11.816;2023-09-08T12:05:51;101712.60;;;32.24
68939;BMP180;59064;45.294;11.816;2023-09-08T12:08:25;101713.80;;;32.40
68939;BMP180;59064;45.294;11.816;2023-09-08T12:10:54;101705.00;;;32.84
68939;BMP180;59064;45.294;11.816;2023-09-08T12:13:22;101713.60;;;33.00
68939;BMP180;59064;45.294;11.816;2023-09-08T12:15:48;101708.80;;;33.08
68939;BMP180;59064;45.294;11.816;2023-09-08T12:18:20;101706.80;;;32.98
68939;BMP180;59064;45.294;11.816;2023-09-08T12:21:05;101700.80;;;33.12
68939;BMP180;59064;45.294;11.816;2023-09-08T12:23:33;101693.40;;;33.10
68939;BMP180;59064;45.294;11.816;2023-09-08T12:26:01;101690.40;;;33.00
68939;BMP180;59064;45.294;11.816;2023-09-08T12:28:30;101683.80;;;33.30
68939;BMP180;59064;45.294;11.816;2023-09-08T12:31:04;101692.20;;;33.36
68939;BMP180;59064;45.294;11.816;2023-09-08T12:33:47;101690.40;;;33.26
68939;BMP180;59064;45.294;11.816;2023-09-08T12:36:17;101697.80;;;33.62
68939;BMP180;59064;45.294;11.816;2023-09-08T12:38:55;101695.60;;;34.08
68939;BMP180;59064;45.294;11.816;2023-09-08T12:41:23;101690.80;;;34.30
68939;BMP180;59064;45.294;11.816;2023-09-08T12:43:49;101691.60;;;34.40
68939;BMP180;59064;45.294;11.816;2023-09-08T12:46:23;101683.40;;;34.60
68939;BMP180;59064;45.294;11.816;2023-09-08T12:51:36;101672.80;;;35.10
68939;BMP180;59064;45.294;11.816;2023-09-08T12:54:05;101678.00;;;35.00
68939;BMP180;59064;45.294;11.816;2023-09-08T12:56:31;101675.20;;;35.06
68939;BMP180;59064;45.294;11.816;2023-09-08T12:59:19;101670.20;;;35.40
68939;BMP180;59064;45.294;11.816;2023-09-08T13:01:45;101665.20;;;35.20
68939;BMP180;59064;45.294;11.816;2023-09-08T13:04:15;101671.20;;;34.96
68939;BMP180;59064;45.294;11.816;2023-09-08T13:06:41;101662.00;;;34.80
68939;BMP180;59064;45.294;11.816;2023-09-08T13:09:11;101674.20;;;34.62
68939;BMP180;59064;45.294;11.816;2023-09-08T13:11:46;101669.60;;;34.74
68939;BMP180;59064;45.294;11.816;2023-09-08T13:14:12;101671.20;;;34.66
68939;BMP180;59064;45.294;11.816;2023-09-08T13:19:42;101661.00;;;34.68
68939;BMP180;59064;45.294;11.816;2023-09-08T13:24:44;101665.20;;;34.50
68939;BMP180;59064;45.294;11.816;2023-09-08T13:27:11;101660.80;;;34.68
68939;BMP180;59064;45.294;11.816;2023-09-08T13:29:37;101663.20;;;35.14
68939;BMP180;59064;45.294;11.816;2023-09-08T13:32:04;101662.00;;;35.52
68939;BMP180;59064;45.294;11.816;2023-09-08T13:34:31;101655.00;;;35.80
68939;BMP180;59064;45.294;11.816;2023-09-08T13:37:02;101650.60;;;36.20
68939;BMP180;59064;45.294;11.816;2023-09-08T13:39:31;101649.40;;;36.40
68939;BMP180;59064;45.294;11.816;2023-09-08T13:42:15;101655.80;;;36.70
68939;BMP180;59064;45.294;11.816;2023-09-08T13:44:45;101658.40;;;36.70
68939;BMP180;59064;45.294;11.816;2023-09-08T13:47:19;101652.40;;;37.10
68939;BMP180;59064;45.294;11.816;2023-09-08T13:49:47;101646.00;;;37.02
68939;BMP180;59064;45.294;11.816;2023-09-08T13:52:19;101646.80;;;37.00
68939;BMP180;59064;45.294;11.816;2023-09-08T13:54:48;101644.00;;;36.90
68939;BMP180;59064;45.294;11.816;2023-09-08T13:57:14;101644.40;;;36.74
68939;BMP180;59064;45.294;11.816;2023-09-08T13:59:40;101646.20;;;36.54
68939;BMP180;59064;45.294;11.816;2023-09-08T14:02:13;101648.60;;;36.64
68939;BMP180;59064;45.294;11.816;2023-09-08T14:04:39;101638.60;;;36.70
68939;BMP180;59064;45.294;11.816;2023-09-08T14:07:13;101645.40;;;37.08
68939;BMP180;59064;45.294;11.816;2023-09-08T14:09:40;101636.00;;;37.50
68939;BMP180;59064;45.294;11.816;2023-09-08T14:12:06;101641.80;;;37.80
68939;BMP180;59064;45.294;11.816;2023-09-08T14:14:32;101634.60;;;38.00
68939;BMP180;59064;45.294;11.816;2023-09-08T14:16:58;101634.80;;;38.30
68939;BMP180;59064;45.294;11.816;2023-09-08T14:19:24;101634.40;;;38.74
68939;BMP180;59064;45.294;11.816;2023-09-08T14:21:50;101630.40;;;38.60
68939;BMP180;59064;45.294;11.816;2023-09-08T14:24:16;101628.60;;;38.76
68939;BMP180;59064;45.294;11.816;2023-09-08T14:26:45;101626.20;;;39.10
68939;BMP180;59064;45.294;11.816;2023-09-08T14:29:14;101621.20;;;39.30
68939;BMP180;59064;45.294;11.816;2023-09-08T14:31:40;101618.80;;;39.06
68939;BMP180;59064;45.294;11.816;2023-09-08T14:34:08;101619.80;;;39.20
68939;BMP180;59064;45.294;11.816;2023-09-08T14:36:34;101615.80;;;39.08
68939;BMP180;59064;45.294;11.816;2023-09-08T14:39:00;101615.80;;;38.88
68939;BMP180;59064;45.294;11.816;2023-09-08T14:41:26;101615.80;;;38.70
68939;BMP180;59064;45.294;11.816;2023-09-08T14:43:52;101616.00;;;39.00
68939;BMP180;59064;45.294;11.816;2023-09-08T14:46:17;101613.20;;;39.34
68939;BMP180;59064;45.294;11.816;2023-09-08T14:48:44;101611.40;;;39.52
68939;BMP180;59064;45.294;11.816;2023-09-08T14:51:10;101609.80;;;39.18
68939;BMP180;59064;45.294;11.816;2023-09-08T14:53:35;101608.80;;;39.10
68939;BMP180;59064;45.294;11.816;2023-09-08T14:56:01;101614.60;;;38.46
68939;BMP180;59064;45.294;11.816;2023-09-08T14:58:30;101606.40;;;38.30
68939;BMP180;59064;45.294;11.816;2023-09-08T15:01:01;101612.80;;;38.20
68939;BMP180;59064;45.294;11.816;2023-09-08T15:03:31;101607.60;;;38.40
68939;BMP180;59064;45.294;11.816;2023-09-08T15:05:59;101610.00;;;38.80
68939;BMP180;59064;45.294;11.816;2023-09-08T15:08:25;101609.00;;;39.08
68939;BMP180;59064;45.294;11.816;2023-09-08T15:10:51;101607.80;;;39.08
68939;BMP180;59064;45.294;11.816;2023-09-08T15:13:17;101604.60;;;38.80
68939;BMP180;59064;45.294;11.816;2023-09-08T15:15:44;101604.00;;;38.50
68939;BMP180;59064;45.294;11.816;2023-09-08T15:18:10;101606.40;;;37.74
68939;BMP180;59064;45.294;11.816;2023-09-08T15:20:36;101601.20;;;37.48
68939;BMP180;59064;45.294;11.816;2023-09-08T15:23:13;101605.80;;;37.34
68939;BMP180;59064;45.294;11.816;2023-09-08T15:25:41;101607.40;;;37.40
68939;BMP180;59064;45.294;11.816;2023-09-08T15:28:08;101607.40;;;37.40
68939;BMP180;59064;45.294;11.816;2023-09-08T15:30:36;101609.20;;;37.60
68939;BMP180;59064;45.294;11.816;2023-09-08T15:33:06;101602.20;;;37.80
68939;BMP180;59064;45.294;11.816;2023-09-08T15:35:33;101599.40;;;38.04
68939;BMP180;59064;45.294;11.816;2023-09-08T15:37:58;101596.20;;;38.18
68939;BMP180;59064;45.294;11.816;2023-09-08T15:40:24;101599.60;;;37.68
68939;BMP180;59064;45.294;11.816;2023-09-08T15:42:50;101599.20;;;37.30
68939;BMP180;59064;45.294;11.816;2023-09-08T15:45:20;101599.20;;;37.00
68939;BMP180;59064;45.294;11.816;2023-09-08T15:47:45;101599.60;;;36.80
68939;BMP180;59064;45.294;11.816;2023-09-08T15:50:13;101591.80;;;37.00
68939;BMP180;59064;45.294;11.816;2023-09-08T15:52:39;101596.80;;;36.90
68939;BMP180;59064;45.294;11.816;2023-09-08T15:55:05;101595.60;;;36.40
68939;BMP180;59064;45.294;11.816;2023-09-08T15:57:31;101594.20;;;35.94
68939;BMP180;59064;45.294;11.816;2023-09-08T15:59:56;101591.80;;;35.70
68939;BMP180;59064;45.294;11.816;2023-09-08T16:02:22;101592.60;;;35.60
68939;BMP180;59064;45.294;11.816;2023-09-08T16:04:48;101593.80;;;35.46
68939;BMP180;59064;45.294;11.816;2023-09-08T16:07:13;101592.40;;;35.46
68939;BMP180;59064;45.294;11.816;2023-09-08T16:09:40;101594.00;;;35.20
68939;BMP180;59064;45.294;11.816;2023-09-08T16:12:06;101594.20;;;35.10
68939;BMP180;59064;45.294;11.816;2023-09-08T16:14:32;101592.40;;;35.12
68939;BMP180;59064;45.294;11.816;2023-09-08T16:16:58;101593.80;;;34.86